Time;durP1;ratioP1;P1;durP2;ratioP2;P2;SDS_P1;SDS_P2;PMS_P1;PMS_P2;Temp;Humidity;BMP_temperature;BMP_pressure;BME280_temperature;BME280_humidity;BME280_pressure;Samples;Min_cycle;Max_cycle;Signal;HPM_P1;HPM_P2
2022/02/15 00:01:44;;;;;;;9.95;2.30;;;7.30;97.60;;;;;;5018576;28;20764;-65
2022/02/15 00:04:12;;;;;;;3.80;1.48;;;7.30;97.40;;;;;;5019308;28;20214;-66
2022/02/15 00:06:39;;;;;;;6.47;1.67;;;7.30;97.50;;;;;;5023340;28;20209;-66
2022/02/15 00:09:06;;;;;;;6.00;1.70;;;7.40;97.60;;;;;;5023532;28;20235;-66
2022/02/15 00:11:35;;;;;;;2.63;1.45;;;7.30;97.50;;;;;;5022417;28;20211;-66
2022/02/15 00:14:02;;;;;;;13.10;1.88;;;7.40;97.50;;;;;;5018954;28;20215;-65
2022/02/15 00:16:29;;;;;;;4.93;1.60;;;7.40;97.60;;;;;;5016203;28;20207;-66
2022/02/15 00:18:57;;;;;;;5.40;1.88;;;7.40;97.30;;;;;;5015098;28;20230;-66
2022/02/15 00:21:24;;;;;;;5.50;1.77;;;7.40;97.20;;;;;;5015256;28;20253;-65
2022/02/15 00:23:51;;;;;;;5.20;1.55;;;7.50;97.10;;;;;;5014492;28;20199;-65
2022/02/15 00:26:18;;;;;;;4.38;1.55;;;7.40;97.00;;;;;;5017788;28;20203;-65
2022/02/15 00:28:46;;;;;;;4.00;1.48;;;7.40;97.20;;;;;;5017341;28;20237;-65
2022/02/15 00:31:14;;;;;;;4.25;1.70;;;7.40;97.20;;;;;;5020310;28;20207;-66
2022/02/15 00:33:41;;;;;;;5.88;1.80;;;7.40;97.10;;;;;;5019635;28;20226;-66
2022/02/15 00:36:08;;;;;;;5.22;1.70;;;7.40;97.20;;;;;;5018217;28;20203;-66
2022/02/15 00:38:35;;;;;;;3.88;1.55;;;7.40;97.30;;;;;;5017432;28;20687;-65
2022/02/15 00:41:03;;;;;;;3.58;1.65;;;7.40;97.50;;;;;;5017645;28;20199;-65
2022/02/15 00:43:30;;;;;;;5.70;1.90;;;7.30;97.50;;;;;;5017630;28;20207;-65
2022/02/15 00:45:58;;;;;;;5.45;1.50;;;7.30;97.50;;;;;;5017689;28;20218;-65
2022/02/15 00:48:25;;;;;;;1.75;1.42;;;7.30;97.70;;;;;;5017151;28;20261;-66
2022/02/15 00:50:52;;;;;;;3.40;1.30;;;7.30;97.80;;;;;;5017081;28;20207;-65
2022/02/15 00:53:20;;;;;;;7.80;2.00;;;7.30;97.70;;;;;;5016593;28;20596;-65
2022/02/15 00:55:47;;;;;;;3.80;1.70;;;7.30;97.80;;;;;;5016879;28;20211;-66
2022/02/15 00:58:14;;;;;;;3.30;1.58;;;7.40;97.80;;;;;;5016389;28;20233;-65
2022/02/15 01:00:41;;;;;;;3.05;1.63;;;7.40;97.80;;;;;;5016850;28;20206;-65
2022/02/15 01:03:09;;;;;;;7.25;2.45;;;7.40;97.60;;;;;;5016393;28;20207;-65
2022/02/15 01:05:36;;;;;;;5.40;1.80;;;7.40;97.80;;;;;;5016355;28;20206;-65
2022/02/15 01:08:04;;;;;;;7.13;1.75;;;7.40;97.90;;;;;;5016613;28;20234;-65
2022/02/15 01:10:31;;;;;;;7.20;2.45;;;7.40;97.80;;;;;;5016349;28;20203;-65
2022/02/15 01:12:58;;;;;;;3.90;1.85;;;7.30;98.10;;;;;;5016349;28;20254;-66
2022/02/15 01:15:25;;;;;;;2.70;1.40;;;7.30;98.20;;;;;;5016123;28;20223;-65
2022/02/15 01:17:52;;;;;;;6.80;2.67;;;7.30;98.30;;;;;;5016044;28;20698;-66
2022/02/15 01:20:21;;;;;;;3.67;1.63;;;7.30;98.30;;;;;;5016078;28;20199;-65
2022/02/15 01:22:48;;;;;;;3.53;2.65;;;7.30;98.40;;;;;;5015955;28;20210;-66
2022/02/15 01:25:15;;;;;;;7.40;1.98;;;7.30;98.50;;;;;;5016172;28;20195;-65
2022/02/15 01:27:42;;;;;;;3.17;1.95;;;7.30;98.40;;;;;;5015941;28;20203;-66
2022/02/15 01:30:10;;;;;;;5.15;2.15;;;7.30;98.50;;;;;;5016236;28;20214;-65
2022/02/15 01:32:37;;;;;;;6.18;1.90;;;7.30;98.70;;;;;;5015916;28;20214;-65
2022/02/15 01:35:04;;;;;;;3.20;1.60;;;7.20;98.70;;;;;;5016053;28;20600;-65
2022/02/15 01:37:33;;;;;;;2.20;1.63;;;7.20;98.70;;;;;;5015216;28;20206;-65
2022/02/15 01:40:00;;;;;;;4.18;1.77;;;7.20;98.90;;;;;;5015820;28;20223;-65
2022/02/15 01:42:27;;;;;;;5.03;1.80;;;7.20;99.00;;;;;;5018761;28;20214;-65
2022/02/15 01:44:54;;;;;;;4.70;1.88;;;7.20;99.10;;;;;;5021520;28;20206;-65
2022/02/15 01:47:23;;;;;;;3.03;1.98;;;7.20;99.20;;;;;;5018533;28;20232;-65
2022/02/15 01:49:50;;;;;;;4.45;2.30;;;7.20;99.30;;;;;;5018025;28;20223;-66
2022/02/15 01:52:20;;;;;;;2.97;2.08;;;7.20;99.50;;;;;;5017117;28;20207;-64
2022/02/15 01:54:49;;;;;;;12.43;2.50;;;7.10;99.40;;;;;;5016253;28;20226;-66
2022/02/15 01:57:17;;;;;;;4.13;2.20;;;7.10;99.60;;;;;;5017476;28;20234;-65
2022/02/15 01:59:45;;;;;;;3.53;2.40;;;7.10;99.70;;;;;;5019239;28;20227;-65
2022/02/15 02:02:14;;;;;;;3.40;2.50;;;7.10;99.90;;;;;;5019251;28;20218;-66
2022/02/15 02:07:27;;;;;;;4.00;2.80;;;7.00;99.90;;;;;;5015830;28;20211;-65
2022/02/15 02:09:56;;;;;;;4.95;3.05;;;7.00;99.90;;;;;;5015315;28;20223;-65
2022/02/15 02:12:23;;;;;;;6.30;3.45;;;7.00;99.90;;;;;;5015208;28;20217;-66
2022/02/15 02:14:58;;;;;;;5.07;2.58;;;7.10;99.90;;;;;;5015379;28;20237;-65
2022/02/15 02:17:25;;;;;;;7.03;2.70;;;7.10;99.90;;;;;;5015301;28;20194;-66
2022/02/15 02:19:54;;;;;;;4.28;3.22;;;7.10;99.90;;;;;;5015064;28;20226;-65
2022/02/15 02:22:24;;;;;;;7.22;3.05;;;7.10;99.90;;;;;;5015184;28;20249;-66
2022/02/15 02:24:52;;;;;;;5.55;3.55;;;7.00;99.90;;;;;;5015188;28;20234;-66
2022/02/15 02:27:23;;;;;;;5.18;3.03;;;7.00;99.90;;;;;;5014822;28;20623;-66
2022/02/15 02:29:51;;;;;;;6.10;3.47;;;7.00;99.90;;;;;;5015180;28;20240;-66
2022/02/15 02:32:18;;;;;;;6.15;3.75;;;7.00;99.90;;;;;;5014708;28;20203;-65
2022/02/15 02:34:46;;;;;;;6.32;4.00;;;7.10;99.90;;;;;;5014953;28;20258;-66
2022/02/15 02:37:13;;;;;;;5.43;3.67;;;7.10;99.90;;;;;;5014603;28;20210;-64
2022/02/15 02:39:43;;;;;;;9.13;3.83;;;7.00;99.90;;;;;;5014801;28;20223;-65
2022/02/15 02:42:11;;;;;;;7.40;4.85;;;7.10;99.90;;;;;;5014968;28;20191;-65
2022/02/15 02:44:38;;;;;;;6.68;3.60;;;7.10;99.90;;;;;;5014598;28;20668;-65
2022/02/15 02:47:06;;;;;;;5.03;3.50;;;7.10;99.90;;;;;;5014590;28;20215;-64
2022/02/15 02:49:33;;;;;;;8.93;4.15;;;7.20;99.90;;;;;;5013971;28;20246;-65
2022/02/15 02:52:01;;;;;;;5.70;4.30;;;7.20;99.90;;;;;;5014464;28;20203;-64
2022/02/15 02:54:28;;;;;;;6.05;4.38;;;7.20;99.90;;;;;;5014372;28;20314;-65
2022/02/15 02:56:59;;;;;;;10.80;4.47;;;7.20;99.90;;;;;;5014596;28;20207;-65
2022/02/15 02:59:26;;;;;;;4.97;4.53;;;7.20;99.90;;;;;;5014168;28;20230;-65
2022/02/15 03:01:53;;;;;;;10.90;5.75;;;7.20;99.90;;;;;;5014592;28;20213;-65
2022/02/15 03:04:21;;;;;;;5.57;4.57;;;7.20;99.90;;;;;;5014549;28;20287;-65
2022/02/15 03:06:48;;;;;;;7.13;5.35;;;7.20;99.90;;;;;;5014571;28;20574;-65
2022/02/15 03:09:16;;;;;;;6.78;5.07;;;7.10;99.90;;;;;;5014070;28;20714;-66
2022/02/15 03:11:43;;;;;;;8.77;5.82;;;7.10;99.90;;;;;;5014407;28;20213;-65
2022/02/15 03:14:11;;;;;;;8.55;5.53;;;7.10;99.90;;;;;;5014039;28;20209;-65
2022/02/15 03:16:38;;;;;;;8.18;6.53;;;7.00;99.90;;;;;;5014288;28;20218;-65
2022/02/15 03:19:05;;;;;;;9.40;6.38;;;7.10;99.90;;;;;;5013976;28;20734;-65
2022/02/15 03:21:32;;;;;;;8.85;5.85;;;7.00;99.90;;;;;;5013997;28;20210;-65
2022/02/15 03:23:59;;;;;;;8.30;5.97;;;7.00;99.90;;;;;;5014260;28;20214;-65
2022/02/15 03:26:27;;;;;;;7.68;6.85;;;7.00;99.90;;;;;;5014136;28;20205;-65
2022/02/15 03:28:54;;;;;;;8.30;6.65;;;7.00;99.90;;;;;;5013614;28;20245;-65
2022/02/15 03:31:24;;;;;;;6.80;5.97;;;7.00;99.90;;;;;;5013769;28;20203;-65
2022/02/15 03:33:51;;;;;;;9.75;7.00;;;7.00;99.90;;;;;;5013891;28;20206;-65
2022/02/15 03:36:19;;;;;;;7.97;6.43;;;7.00;99.90;;;;;;5013942;28;20234;-65
2022/02/15 03:38:46;;;;;;;9.02;6.63;;;6.90;99.90;;;;;;5013853;28;20233;-65
2022/02/15 03:43:57;;;;;;;9.20;6.85;;;6.90;99.90;;;;;;5013869;28;20606;-65
2022/02/15 03:46:26;;;;;;;8.65;7.45;;;6.90;99.90;;;;;;5013461;28;20210;-65
2022/02/15 03:48:53;;;;;;;11.38;7.80;;;6.90;99.90;;;;;;5013626;28;20226;-65
2022/02/15 03:51:20;;;;;;;12.48;7.53;;;6.90;99.90;;;;;;5013473;28;20209;-65
2022/02/15 03:53:47;;;;;;;9.00;6.85;;;6.90;99.90;;;;;;5014088;28;20671;-65
2022/02/15 03:56:14;;;;;;;7.63;6.82;;;6.90;99.90;;;;;;5013476;28;20710;-65
2022/02/15 03:58:42;;;;;;;8.40;7.45;;;6.90;99.90;;;;;;5013533;28;20622;-65
2022/02/15 04:01:10;;;;;;;8.70;7.10;;;7.00;99.90;;;;;;5013827;28;20207;-66
2022/02/15 04:03:38;;;;;;;10.63;6.72;;;7.00;99.90;;;;;;5013770;28;20288;-66
2022/02/15 04:09:21;;;;;;;9.80;7.90;;;7.10;99.90;;;;;;5091247;27;20558;-65
2022/02/15 04:11:48;;;;;;;7.55;6.55;;;7.10;99.90;;;;;;5090857;28;20633;-65
2022/02/15 04:14:15;;;;;;;9.52;7.38;;;7.10;99.90;;;;;;5091169;28;20207;-65
2022/02/15 04:16:42;;;;;;;8.75;6.32;;;7.10;99.90;;;;;;5091422;28;20669;-66
2022/02/15 04:19:09;;;;;;;8.63;7.75;;;7.10;99.90;;;;;;5094620;28;20216;-66
2022/02/15 04:21:36;;;;;;;8.15;6.95;;;7.10;99.90;;;;;;5108696;22;20197;-60
2022/02/15 04:24:03;;;;;;;9.18;6.00;;;7.10;99.90;;;;;;5050735;28;20193;-61
2022/02/15 04:26:32;;;;;;;9.85;6.25;;;7.20;99.90;;;;;;5050604;28;20213;-60
2022/02/15 04:28:59;;;;;;;8.13;6.28;;;7.20;99.90;;;;;;5050008;28;20217;-60
2022/02/15 04:31:26;;;;;;;10.73;7.30;;;7.20;99.90;;;;;;5050329;28;20202;-61
2022/02/15 04:33:53;;;;;;;9.75;6.47;;;7.20;99.90;;;;;;5050378;28;20213;-60
2022/02/15 04:36:20;;;;;;;10.40;6.05;;;7.20;99.90;;;;;;5049912;28;20580;-59
2022/02/15 04:38:47;;;;;;;8.10;5.90;;;7.20;99.90;;;;;;5050039;28;20670;-60
2022/02/15 04:41:14;;;;;;;8.98;5.90;;;7.20;99.90;;;;;;5050192;28;20205;-60
2022/02/15 04:43:42;;;;;;;7.75;5.85;;;7.20;99.90;;;;;;5049828;28;20225;-59
2022/02/15 04:46:09;;;;;;;9.88;6.80;;;7.20;99.90;;;;;;5050339;28;20214;-60
2022/02/15 04:48:37;;;;;;;7.90;6.40;;;7.20;99.90;;;;;;5049935;28;20218;-60
2022/02/15 04:51:04;;;;;;;7.00;5.78;;;7.20;99.90;;;;;;5049988;28;20206;-60
2022/02/15 04:53:31;;;;;;;7.28;5.82;;;7.20;99.90;;;;;;5049949;28;20229;-61
2022/02/15 04:56:02;;;;;;;7.45;6.63;;;7.10;99.90;;;;;;5050153;28;20233;-60
2022/02/15 04:58:29;;;;;;;8.55;7.18;;;7.10;99.90;;;;;;5050012;28;20189;-60
2022/02/15 05:00:57;;;;;;;12.00;7.57;;;7.10;99.90;;;;;;5050080;28;20229;-60
2022/02/15 05:03:24;;;;;;;8.07;7.10;;;7.10;99.90;;;;;;5049907;28;20305;-60
2022/02/15 05:05:51;;;;;;;8.30;7.43;;;7.10;99.90;;;;;;5049548;28;20198;-60
2022/02/15 05:08:18;;;;;;;9.32;7.50;;;7.20;99.90;;;;;;5049455;28;20217;-60
2022/02/15 05:10:45;;;;;;;11.20;8.30;;;7.20;99.90;;;;;;5049765;28;20213;-60
2022/02/15 05:13:13;;;;;;;9.02;8.10;;;7.30;99.90;;;;;;5049534;28;20233;-60
2022/02/15 05:15:40;;;;;;;13.35;8.85;;;7.30;99.90;;;;;;5049777;28;20228;-59
2022/02/15 05:18:08;;;;;;;10.63;9.43;;;7.40;99.90;;;;;;5049648;28;20210;-60
2022/02/15 05:20:37;;;;;;;9.88;8.35;;;7.40;99.90;;;;;;5036744;28;20202;-60
2022/02/15 05:23:04;;;;;;;12.93;8.65;;;7.40;99.90;;;;;;5035826;28;20237;-59
2022/02/15 05:25:31;;;;;;;11.50;9.23;;;7.50;99.90;;;;;;5036286;28;20198;-59
2022/02/15 05:27:58;;;;;;;12.45;8.82;;;7.40;99.90;;;;;;5036166;28;20229;-60
2022/02/15 05:30:25;;;;;;;13.52;9.68;;;7.50;99.90;;;;;;5036035;28;20206;-59
2022/02/15 05:32:53;;;;;;;10.52;8.95;;;7.50;99.90;;;;;;5035966;28;20230;-59
2022/02/15 05:35:21;;;;;;;11.90;9.05;;;7.50;99.90;;;;;;5035874;28;20214;-59
2022/02/15 05:37:49;;;;;;;9.88;8.88;;;7.40;99.90;;;;;;5036045;28;20279;-59
2022/02/15 05:40:16;;;;;;;14.25;10.35;;;7.50;99.90;;;;;;5035981;28;20685;-59
2022/02/15 05:42:44;;;;;;;11.23;9.65;;;7.50;99.90;;;;;;5035464;28;20237;-59
2022/02/15 05:45:12;;;;;;;11.93;10.30;;;7.50;99.90;;;;;;5036166;28;20209;-60
2022/02/15 05:47:39;;;;;;;14.27;10.18;;;7.50;99.90;;;;;;5035632;28;20202;-60
2022/02/15 05:52:53;;;;;;;15.25;9.77;;;7.40;99.90;;;;;;5037068;28;20217;-60
2022/02/15 05:55:20;;;;;;;11.27;9.90;;;7.50;99.90;;;;;;5036783;28;20210;-60
2022/02/15 05:57:47;;;;;;;11.20;9.10;;;7.50;99.90;;;;;;5036033;28;20199;-60
2022/02/15 06:00:16;;;;;;;12.57;9.02;;;7.40;99.90;;;;;;5037146;28;20551;-60
2022/02/15 06:02:43;;;;;;;11.27;9.75;;;7.50;99.90;;;;;;5036421;28;20230;-59
2022/02/15 06:05:10;;;;;;;11.90;8.93;;;7.40;99.90;;;;;;5036246;28;20572;-59
2022/02/15 06:07:37;;;;;;;11.23;9.80;;;7.50;99.90;;;;;;5035679;28;20213;-59
2022/02/15 06:10:07;;;;;;;14.98;9.10;;;7.50;99.90;;;;;;5035789;28;20573;-59
2022/02/15 06:12:34;;;;;;;13.25;10.48;;;7.50;99.90;;;;;;5035576;28;20223;-59
2022/02/15 06:15:01;;;;;;;15.05;10.82;;;7.50;99.90;;;;;;5036880;28;20260;-60
2022/02/15 06:17:28;;;;;;;13.30;10.32;;;7.50;99.90;;;;;;5037446;28;20206;-60
2022/02/15 06:19:55;;;;;;;9.93;8.70;;;7.50;99.90;;;;;;5036931;28;20198;-60
2022/02/15 06:22:22;;;;;;;13.55;9.85;;;7.50;99.90;;;;;;5035300;28;20321;-60
2022/02/15 06:24:49;;;;;;;12.82;9.77;;;7.50;99.90;;;;;;5035351;28;20256;-59
2022/02/15 06:27:18;;;;;;;10.77;9.35;;;7.50;99.90;;;;;;5035169;28;20211;-60
2022/02/15 06:29:45;;;;;;;13.35;10.02;;;7.50;99.90;;;;;;5035309;28;20706;-60
2022/02/15 06:32:13;;;;;;;14.02;10.10;;;7.50;99.90;;;;;;5033893;28;20651;-60
2022/02/15 06:34:40;;;;;;;15.00;10.38;;;7.50;99.90;;;;;;5034527;28;20218;-59
2022/02/15 06:37:07;;;;;;;13.32;9.23;;;7.50;99.90;;;;;;5034639;28;20627;-60
2022/02/15 06:39:34;;;;;;;18.15;9.85;;;7.50;99.90;;;;;;5035665;28;20201;-59
2022/02/15 06:42:01;;;;;;;14.20;10.80;;;7.50;99.90;;;;;;5035287;28;20686;-61
2022/02/15 06:44:30;;;;;;;13.48;9.43;;;7.50;99.90;;;;;;5035172;28;20568;-60
2022/02/15 06:46:57;;;;;;;12.73;10.68;;;7.50;99.90;;;;;;5034946;28;20211;-60
2022/02/15 06:49:25;;;;;;;12.75;9.45;;;7.50;99.90;;;;;;5034557;28;20218;-61
2022/02/15 06:51:52;;;;;;;13.98;9.25;;;7.50;99.90;;;;;;5035054;28;20254;-61
2022/02/15 06:54:19;;;;;;;10.60;9.40;;;7.50;99.90;;;;;;5034912;28;20199;-60
2022/02/15 06:56:46;;;;;;;10.93;9.80;;;7.50;99.90;;;;;;5034122;28;20209;-61
2022/02/15 06:59:13;;;;;;;10.82;9.48;;;7.50;99.90;;;;;;5035260;28;20202;-61
2022/02/15 07:01:43;;;;;;;17.20;10.68;;;7.50;99.90;;;;;;5034071;28;20233;-61
2022/02/15 07:04:12;;;;;;;13.43;9.32;;;7.50;99.90;;;;;;5034268;28;20572;-60
2022/02/15 07:06:39;;;;;;;14.90;9.55;;;7.50;99.90;;;;;;5033921;28;20202;-60
2022/02/15 07:09:06;;;;;;;14.70;9.10;;;7.50;99.90;;;;;;5033600;28;20261;-60
2022/02/15 07:11:34;;;;;;;12.23;9.77;;;7.60;99.90;;;;;;5033565;28;20203;-60
2022/02/15 07:14:01;;;;;;;13.40;10.35;;;7.60;99.90;;;;;;5033694;28;20209;-60
2022/02/15 07:16:28;;;;;;;14.13;10.75;;;7.60;99.90;;;;;;5034142;28;20205;-60
2022/02/15 07:18:56;;;;;;;12.60;10.13;;;7.60;99.90;;;;;;5033588;28;20194;-61
2022/02/15 07:21:23;;;;;;;14.82;10.48;;;7.60;99.90;;;;;;5033723;28;20229;-61
2022/02/15 07:23:50;;;;;;;14.15;10.77;;;7.70;99.90;;;;;;5033837;28;20674;-60
2022/02/15 07:26:18;;;;;;;14.18;10.43;;;7.70;99.90;;;;;;5033511;28;20207;-60
2022/02/15 07:28:45;;;;;;;11.15;9.88;;;7.70;99.90;;;;;;5033522;28;20249;-61
2022/02/15 07:31:14;;;;;;;13.13;9.93;;;7.70;99.90;;;;;;5033499;28;20685;-60
2022/02/15 07:33:41;;;;;;;15.27;10.75;;;7.70;99.90;;;;;;5033324;28;20745;-61
2022/02/15 07:36:09;;;;;;;12.02;9.25;;;7.80;99.90;;;;;;5033550;28;20202;-61
2022/02/15 07:38:36;;;;;;;11.45;9.38;;;7.80;99.90;;;;;;5033263;28;20198;-62
2022/02/15 07:41:03;;;;;;;11.93;9.70;;;7.80;99.90;;;;;;5033182;28;20205;-61
2022/02/15 07:43:31;;;;;;;10.88;9.07;;;7.90;99.90;;;;;;5032772;28;20229;-61
2022/02/15 07:45:58;;;;;;;12.57;8.63;;;7.90;99.90;;;;;;5033148;28;20213;-60
2022/02/15 07:48:25;;;;;;;12.73;9.43;;;7.90;99.90;;;;;;5032860;28;20226;-61
2022/02/15 07:50:52;;;;;;;11.15;9.80;;;8.00;99.90;;;;;;5032860;28;20249;-61
2022/02/15 07:53:21;;;;;;;11.35;9.80;;;8.00;99.90;;;;;;5033124;28;20249;-59
2022/02/15 07:55:48;;;;;;;13.00;9.55;;;8.00;99.90;;;;;;5033179;28;20202;-60
2022/02/15 07:58:15;;;;;;;11.32;8.90;;;8.10;99.90;;;;;;5033178;28;20551;-60
2022/02/15 08:00:42;;;;;;;10.05;8.32;;;8.10;99.90;;;;;;5033037;28;20203;-60
2022/02/15 08:03:10;;;;;;;13.18;9.38;;;8.10;99.90;;;;;;5032764;28;20594;-61
2022/02/15 08:05:41;;;;;;;9.20;8.23;;;8.20;99.90;;;;;;5033127;28;20581;-61
2022/02/15 08:08:08;;;;;;;10.50;8.30;;;8.20;99.80;;;;;;5032722;28;20721;-60
2022/02/15 08:10:37;;;;;;;11.73;8.38;;;8.20;99.70;;;;;;5033253;28;20209;-61
2022/02/15 08:13:05;;;;;;;9.90;8.40;;;8.20;99.70;;;;;;5032646;28;20732;-60
2022/02/15 08:15:36;;;;;;;11.48;8.40;;;8.20;99.60;;;;;;5033089;28;20198;-61
2022/02/15 08:18:04;;;;;;;9.77;8.00;;;8.20;99.40;;;;;;5033145;28;20245;-60
2022/02/15 08:20:32;;;;;;;10.95;8.20;;;8.30;99.30;;;;;;5032942;28;20203;-60
2022/02/15 08:23:00;;;;;;;8.32;7.43;;;8.30;99.20;;;;;;5032801;28;20234;-59
2022/02/15 08:25:28;;;;;;;12.38;7.88;;;8.30;99.10;;;;;;5032664;28;20206;-59
2022/02/15 08:27:56;;;;;;;12.10;7.80;;;8.30;99.00;;;;;;5032914;28;20202;-60
2022/02/15 08:30:23;;;;;;;13.13;7.80;;;8.30;98.90;;;;;;5032696;28;20218;-60
2022/02/15 08:32:50;;;;;;;10.55;7.85;;;8.30;98.80;;;;;;5032568;28;20222;-60
2022/02/15 08:35:19;;;;;;;10.18;7.85;;;8.40;98.80;;;;;;5032742;28;20218;-60
2022/02/15 08:37:47;;;;;;;11.05;8.45;;;8.40;98.70;;;;;;5032669;28;20237;-60
2022/02/15 08:40:14;;;;;;;8.50;7.70;;;8.40;98.50;;;;;;5032601;28;20198;-60
2022/02/15 08:42:42;;;;;;;11.18;7.20;;;8.40;98.50;;;;;;5032610;28;20226;-60
2022/02/15 08:45:11;;;;;;;9.00;7.97;;;8.40;98.50;;;;;;5033102;28;20233;-59
2022/02/15 08:47:39;;;;;;;8.80;7.90;;;8.40;98.40;;;;;;5032515;28;20209;-60
2022/02/15 08:50:08;;;;;;;10.13;8.60;;;8.40;98.40;;;;;;5032819;28;20222;-60
2022/02/15 08:52:36;;;;;;;9.70;8.10;;;8.50;98.20;;;;;;5032597;28;20226;-60
2022/02/15 08:55:04;;;;;;;8.93;8.02;;;8.50;98.10;;;;;;5034929;28;20596;-61
2022/02/15 08:57:31;;;;;;;10.60;8.68;;;8.50;98.00;;;;;;5036699;28;20214;-60
2022/02/15 08:59:58;;;;;;;15.20;8.43;;;8.60;98.10;;;;;;5036692;28;20213;-61
2022/02/15 09:02:27;;;;;;;14.70;8.38;;;8.70;98.00;;;;;;5037090;28;20615;-60
2022/02/15 09:04:54;;;;;;;15.68;7.95;;;8.70;97.70;;;;;;5036490;28;20678;-60
2022/02/15 09:07:21;;;;;;;11.38;8.10;;;8.80;97.60;;;;;;5036124;28;20678;-61
2022/02/15 09:09:49;;;;;;;9.13;8.23;;;8.80;97.40;;;;;;5035958;28;20681;-60
2022/02/15 09:12:16;;;;;;;11.88;8.43;;;8.80;97.20;;;;;;5036034;28;20276;-61
2022/02/15 09:14:43;;;;;;;17.60;8.73;;;8.90;97.30;;;;;;5036130;28;20210;-61
2022/02/15 09:17:10;;;;;;;10.00;8.32;;;8.90;97.10;;;;;;5036687;28;20202;-60
2022/02/15 09:19:39;;;;;;;9.65;8.20;;;9.00;96.90;;;;;;5036592;28;20206;-61
2022/02/15 09:22:06;;;;;;;12.52;8.70;;;9.10;96.70;;;;;;5035765;28;20234;-60
2022/02/15 09:24:33;;;;;;;10.57;9.10;;;9.10;96.60;;;;;;5035923;28;20218;-60
2022/02/15 09:27:00;;;;;;;10.55;7.85;;;9.10;96.50;;;;;;5036572;28;20659;-61
2022/02/15 09:29:27;;;;;;;11.57;9.15;;;9.20;96.30;;;;;;5036184;28;20218;-61
2022/02/15 09:31:54;;;;;;;11.65;9.45;;;9.30;96.10;;;;;;5036421;28;20226;-60
2022/02/15 09:34:23;;;;;;;9.82;7.97;;;9.40;95.80;;;;;;5036447;28;20202;-60
2022/02/15 09:36:52;;;;;;;10.10;8.83;;;9.50;95.60;;;;;;5036554;28;20205;-61
2022/02/15 09:39:19;;;;;;;11.75;8.40;;;9.50;95.40;;;;;;5036756;28;20445;-61
2022/02/15 09:41:47;;;;;;;13.80;8.48;;;9.60;95.20;;;;;;5036306;28;20710;-61
2022/02/15 09:44:15;;;;;;;8.82;7.90;;;9.60;94.70;;;;;;5036239;28;20199;-61
2022/02/15 09:46:44;;;;;;;9.93;8.37;;;9.70;94.60;;;;;;5036317;28;20209;-61
2022/02/15 09:49:48;;;;;;;9.60;8.43;;;9.70;94.50;;;;;;5036103;28;20483;-61
2022/02/15 09:52:02;;;;;;;11.30;8.57;;;9.70;93.80;;;;;;5034968;28;20540;-61
2022/02/15 09:54:30;;;;;;;12.27;7.30;;;9.70;93.70;;;;;;5035300;28;20449;-61
2022/02/15 09:56:57;;;;;;;11.52;9.05;;;9.70;93.80;;;;;;5035458;28;20805;-62
2022/02/15 09:59:25;;;;;;;7.60;6.37;;;9.80;93.70;;;;;;5035402;28;20210;-61
2022/02/15 10:01:53;;;;;;;12.05;7.13;;;9.90;93.20;;;;;;5034824;28;20473;-61
2022/02/15 10:04:32;;;;;;;10.97;6.87;;;9.90;92.90;;;;;;5035004;28;20202;-62
2022/02/15 10:07:01;;;;;;;10.27;7.10;;;9.90;92.70;;;;;;5034694;28;20445;-61
2022/02/15 10:09:29;;;;;;;9.80;7.53;;;9.90;92.50;;;;;;5034765;28;20545;-61
2022/02/15 10:12:04;;;;;;;7.97;6.50;;;9.90;92.30;;;;;;5035109;28;20466;-61
2022/02/15 10:14:31;;;;;;;8.27;6.00;;;9.80;92.30;;;;;;5035012;28;20432;-61
2022/02/15 10:16:59;;;;;;;15.57;6.10;;;9.80;92.50;;;;;;5034698;28;20210;-61
2022/02/15 10:19:28;;;;;;;7.63;6.60;;;9.80;92.40;;;;;;5034931;28;20469;-61
2022/02/15 10:21:56;;;;;;;6.90;6.20;;;9.70;92.20;;;;;;5059917;22;20503;-59
2022/02/15 10:24:26;;;;;;;8.90;7.87;;;9.80;92.30;;;;;;5037641;28;20457;-59
2022/02/15 10:26:59;;;;;;;8.90;6.10;;;9.80;92.20;;;;;;5037700;28;20485;-60
2022/02/15 10:29:28;;;;;;;9.83;7.43;;;9.90;92.20;;;;;;5035017;28;20481;-60
2022/02/15 10:31:56;;;;;;;7.43;6.57;;;10.00;91.60;;;;;;5034203;28;20983;-60
2022/02/15 10:34:23;;;;;;;8.70;6.63;;;10.00;91.30;;;;;;5034758;28;20453;-59
2022/02/15 10:37:00;;;;;;;8.07;7.07;;;10.00;91.20;;;;;;5034411;28;20445;-61
2022/02/15 10:39:41;;;;;;;8.53;7.07;;;10.00;91.30;;;;;;5034650;28;20817;-61
2022/02/15 10:42:11;;;;;;;8.67;7.50;;;9.90;91.70;;;;;;5034426;28;20469;-60
2022/02/15 10:44:59;;;;;;;6.60;5.20;;;9.70;91.60;;;;;;5034028;28;20445;-60
2022/02/15 10:47:28;;;;;;;5.93;5.32;;;9.30;93.90;;;;;;5034773;28;20906;-61
2022/02/15 10:49:59;;;;;;;8.88;7.18;;;8.80;96.20;;;;;;5034365;28;20250;-61
2022/02/15 10:52:28;;;;;;;6.82;6.10;;;8.60;97.70;;;;;;5034394;28;20222;-60
2022/02/15 10:54:57;;;;;;;6.72;4.97;;;8.50;98.50;;;;;;5034176;28;20301;-60
2022/02/15 10:57:24;;;;;;;8.95;6.63;;;8.50;98.90;;;;;;5034429;28;20209;-61
2022/02/15 10:59:53;;;;;;;8.63;6.25;;;8.40;99.10;;;;;;5034047;28;20202;-59
2022/02/15 11:02:23;;;;;;;8.55;6.78;;;8.40;99.50;;;;;;5034343;28;20223;-61
2022/02/15 11:04:51;;;;;;;8.10;7.03;;;8.50;99.90;;;;;;5034096;28;20203;-60
2022/02/15 11:07:20;;;;;;;7.82;5.63;;;8.60;99.90;;;;;;5034193;28;20229;-61
2022/02/15 11:10:14;;;;;;;8.48;7.47;;;8.60;99.60;;;;;;5033989;28;20222;-60
2022/02/15 11:12:46;;;;;;;7.65;6.95;;;8.60;99.30;;;;;;5034112;28;20705;-61
2022/02/15 11:15:13;;;;;;;8.63;7.55;;;8.70;99.10;;;;;;5034138;28;20186;-64
2022/02/15 11:17:48;;;;;;;9.93;7.88;;;8.70;99.00;;;;;;5033255;28;20202;-59
2022/02/15 11:20:17;;;;;;;11.10;9.68;;;8.80;98.90;;;;;;5034205;28;20197;-59
2022/02/15 11:22:47;;;;;;;13.68;10.95;;;9.00;98.90;;;;;;5033740;28;20245;-60
2022/02/15 11:25:16;;;;;;;14.82;10.55;;;9.30;98.70;;;;;;5034012;28;20224;-60
2022/02/15 11:27:51;;;;;;;13.23;11.30;;;9.60;97.90;;;;;;5033484;28;20596;-61
2022/02/15 11:30:18;;;;;;;16.88;12.52;;;9.90;97.10;;;;;;5033509;28;20469;-61
2022/02/15 11:32:47;;;;;;;16.50;11.53;;;10.00;96.00;;;;;;5033583;28;20698;-60
2022/02/15 11:35:16;;;;;;;13.47;12.07;;;10.10;95.80;;;;;;5034121;28;20468;-61
2022/02/15 11:37:44;;;;;;;12.07;10.87;;;10.10;95.50;;;;;;5033435;28;20456;-61
2022/02/15 11:40:13;;;;;;;13.30;12.00;;;10.00;95.50;;;;;;5033587;28;20480;-61
2022/02/15 11:42:49;;;;;;;14.40;11.37;;;10.00;95.30;;;;;;5033570;28;20222;-61
2022/02/15 11:45:27;;;;;;;13.70;11.27;;;10.00;94.90;;;;;;5033734;28;20772;-61
2022/02/15 11:48:03;;;;;;;12.90;11.25;;;9.90;94.80;;;;;;5033334;28;20487;-60
2022/02/15 11:50:41;;;;;;;13.70;11.33;;;10.00;94.20;;;;;;5033514;28;20205;-61
2022/02/15 11:53:08;;;;;;;14.43;11.23;;;10.00;94.00;;;;;;5033893;28;20465;-61
2022/02/15 11:55:36;;;;;;;13.30;11.90;;;10.00;93.40;;;;;;5033498;28;20456;-61
2022/02/15 11:58:07;;;;;;;13.18;10.88;;;10.00;92.60;;;;;;5033520;28;20968;-61
2022/02/15 12:00:37;;;;;;;13.57;11.70;;;9.90;93.40;;;;;;5033238;28;20182;-60
2022/02/15 12:03:05;;;;;;;18.47;13.03;;;9.90;93.30;;;;;;5033973;28;20469;-60
2022/02/15 12:05:35;;;;;;;15.00;12.60;;;10.00;92.60;;;;;;5033599;28;20445;-61
2022/02/15 12:08:02;;;;;;;13.40;12.00;;;10.00;92.40;;;;;;5033393;28;20481;-60
2022/02/15 12:10:36;;;;;;;15.73;12.33;;;10.10;92.30;;;;;;5033650;28;20491;-60
2022/02/15 12:13:04;;;;;;;15.00;13.25;;;10.10;92.10;;;;;;5034839;28;20468;-62
2022/02/15 12:15:36;;;;;;;17.10;13.00;;;10.20;92.00;;;;;;5035484;28;20206;-60
2022/02/15 12:18:03;;;;;;;14.00;12.20;;;10.20;91.90;;;;;;5034550;28;20436;-61
2022/02/15 12:20:31;;;;;;;14.80;13.23;;;10.30;91.70;;;;;;5034793;28;20449;-61
2022/02/15 12:22:58;;;;;;;13.43;12.03;;;10.40;91.40;;;;;;5034451;28;20563;-61
2022/02/15 12:25:25;;;;;;;15.20;13.50;;;10.40;91.20;;;;;;5033268;28;20445;-61
2022/02/15 12:27:52;;;;;;;16.37;14.43;;;10.30;90.90;;;;;;5034152;28;20465;-61
2022/02/15 12:30:21;;;;;;;16.00;13.30;;;10.30;90.90;;;;;;5035595;28;20488;-61
2022/02/15 12:32:49;;;;;;;20.30;16.03;;;10.20;91.00;;;;;;5037012;28;20469;-59
2022/02/15 12:35:27;;;;;;;15.20;13.53;;;10.30;91.00;;;;;;5036917;28;20448;-60
2022/02/15 12:37:56;;;;;;;15.97;13.93;;;10.20;90.80;;;;;;5036472;28;20445;-61
2022/02/15 12:40:24;;;;;;;14.73;13.17;;;10.20;90.80;;;;;;5037180;28;20449;-59
2022/02/15 12:42:53;;;;;;;15.97;14.27;;;10.30;90.70;;;;;;5040724;28;20534;-59
2022/02/15 12:45:21;;;;;;;16.70;14.63;;;10.40;90.40;;;;;;5039482;28;20449;-61
2022/02/15 12:47:48;;;;;;;16.03;13.90;;;10.50;90.20;;;;;;5039367;28;20457;-61
2022/02/15 12:50:17;;;;;;;16.83;15.23;;;10.50;90.00;;;;;;5039155;28;20885;-60
2022/02/15 12:52:44;;;;;;;15.77;13.50;;;10.60;89.60;;;;;;5039563;28;20559;-58
2022/02/15 12:55:14;;;;;;;17.30;14.23;;;10.70;88.80;;;;;;5041311;28;20456;-61
2022/02/15 12:57:43;;;;;;;17.20;13.23;;;10.70;87.80;;;;;;5038674;28;20448;-60
2022/02/15 13:00:11;;;;;;;13.97;12.47;;;10.70;86.90;;;;;;5038239;28;20539;-57
2022/02/15 13:02:42;;;;;;;14.80;13.03;;;10.70;86.40;;;;;;5038033;28;20488;-59
2022/02/15 13:05:09;;;;;;;15.47;13.97;;;10.70;86.30;;;;;;5037627;28;20463;-60